Time;durP1;ratioP1;P1;durP2;ratioP2;P2;SDS_P1;SDS_P2;PMS_P1;PMS_P2;Temp;Humidity;BMP_temperature;BMP_pressure;BME280_temperature;BME280_humidity;BME280_pressure;Samples;Min_cycle;Max_cycle;Signal;HPM_P1;HPM_P2
2022/08/24 00:01:55;;;;;;;9.40;7.75;;;;;;;20.72;99.48;94425.81;5084387;28;20203;-81
2022/08/24 00:04:23;;;;;;;9.77;7.35;;;;;;;20.47;100.00;94397.13;5068931;28;20250;-79
2022/08/24 00:06:51;;;;;;;9.10;8.15;;;;;;;20.70;99.98;94433.03;5069458;28;20190;-82
2022/08/24 00:09:18;;;;;;;14.15;8.77;;;;;;;20.71;99.85;94431.25;5069158;28;20182;-80
2022/08/24 00:11:46;;;;;;;9.98;8.57;;;;;;;20.75;99.76;94433.22;5069079;28;20194;-79
2022/08/24 00:14:13;;;;;;;9.45;8.45;;;;;;;20.67;99.90;94428.25;5068773;28;20185;-79
2022/08/24 00:16:42;;;;;;;12.30;8.80;;;;;;;20.58;100.00;94428.69;5069018;28;20222;-79
2022/08/24 00:19:09;;;;;;;11.05;9.25;;;;;;;20.57;100.00;94427.91;5068828;28;20190;-78
2022/08/24 00:21:38;;;;;;;11.88;8.82;;;;;;;20.61;100.00;94449.09;5068926;28;20206;-80
2022/08/24 00:24:05;;;;;;;11.27;9.50;;;;;;;20.56;100.00;94454.09;5068691;28;20183;-79
2022/08/24 00:26:32;;;;;;;14.13;9.90;;;;;;;20.56;100.00;94454.09;5068636;28;20205;-81
2022/08/24 00:28:59;;;;;;;10.27;9.17;;;;;;;20.45;100.00;94443.28;5070331;28;20186;-81
2022/08/24 00:31:26;;;;;;;11.63;10.45;;;;;;;20.53;100.00;94461.28;5072971;28;20190;-80
2022/08/24 00:33:53;;;;;;;13.18;11.00;;;;;;;20.48;100.00;94455.91;5072943;28;20270;-80
2022/08/24 00:36:20;;;;;;;14.73;10.48;;;;;;;20.54;100.00;94464.69;5072636;28;20225;-79
2022/08/24 00:38:49;;;;;;;13.32;10.60;;;;;;;20.56;100.00;94469.69;5072776;28;20190;-79
2022/08/24 00:41:17;;;;;;;15.30;10.98;;;;;;;20.53;100.00;94460.50;5072604;28;20190;-82
2022/08/24 00:43:53;;;;;;;13.52;10.77;;;;;;;20.53;100.00;94460.50;5072720;28;20522;-79
2022/08/24 00:46:24;;;;;;;11.93;10.73;;;;;;;20.48;100.00;94462.91;5072695;28;20227;-79
2022/08/24 00:49:00;;;;;;;22.23;11.45;;;;;;;20.51;100.00;94467.72;5073077;28;20194;-82
2022/08/24 00:51:31;;;;;;;14.10;12.10;;;;;;;20.52;100.00;94456.31;5072487;28;20650;-81
2022/08/24 00:54:04;;;;;;;13.25;11.65;;;;;;;20.51;100.00;94465.13;5072622;28;20193;-79
2022/08/24 00:56:34;;;;;;;14.73;13.20;;;;;;;20.50;100.00;94471.28;5072190;28;20236;-80
2022/08/24 00:59:05;;;;;;;15.05;12.63;;;;;;;20.53;100.00;94466.47;5072406;28;20194;-79
2022/08/24 01:01:35;;;;;;;17.02;12.13;;;;;;;20.56;100.00;94467.09;5072301;28;20201;-80
2022/08/24 01:04:04;;;;;;;14.20;12.70;;;;;;;20.55;100.00;94474.06;5072193;28;20195;-80
2022/08/24 01:06:32;;;;;;;16.58;13.05;;;;;;;20.57;100.00;94479.88;5072137;28;20686;-81
2022/08/24 01:09:01;;;;;;;15.52;12.90;;;;;;;20.58;100.00;94480.66;5072296;28;20269;-80
2022/08/24 01:11:32;;;;;;;16.92;13.77;;;;;;;20.56;100.00;94474.88;5071724;28;20198;-83
2022/08/24 01:14:00;;;;;;;17.05;14.10;;;;;;;20.57;100.00;94479.06;5072221;28;20514;-80
2022/08/24 01:19:24;;;;;;;15.95;14.27;;;;;;;20.55;100.00;94484.47;5072200;28;20181;-79
2022/08/24 01:22:01;;;;;;;19.05;15.73;;;;;;;20.52;100.00;94487.47;5072307;28;20200;-82
2022/08/24 01:24:30;;;;;;;21.57;18.20;;;;;;;20.49;100.00;94491.28;5071686;28;20182;-82
2022/08/24 01:26:57;;;;;;;23.30;16.42;;;;;;;20.48;100.00;94496.69;5071808;28;20182;-79
2022/08/24 01:29:30;;;;;;;22.92;16.77;;;;;;;20.51;100.00;94496.28;5071784;28;20182;-78
2022/08/24 01:31:58;;;;;;;25.38;17.80;;;;;;;20.47;100.00;94487.28;5071905;28;20186;-83
2022/08/24 01:34:24;;;;;;;26.80;18.08;;;;;;;20.48;100.00;94500.06;5071930;28;20194;-79
2022/08/24 01:36:54;;;;;;;21.90;17.27;;;;;;;20.49;100.00;94503.47;5071887;28;20226;-80
2022/08/24 01:39:26;;;;;;;23.33;17.20;;;;;;;20.50;100.00;94495.47;5071483;28;20190;-79
2022/08/24 01:41:55;;;;;;;28.10;20.75;;;;;;;20.49;100.00;94509.47;5070476;28;20187;-82
2022/08/24 01:44:25;;;;;;;34.00;19.23;;;;;;;20.49;100.00;94508.66;5071279;28;20283;-79
2022/08/24 01:46:54;;;;;;;30.10;19.17;;;;;;;20.50;100.00;94505.84;5071904;28;20577;-82
2022/08/24 01:49:24;;;;;;;24.90;19.67;;;;;;;20.38;100.00;94484.09;5071662;28;20194;-80
2022/08/24 01:51:51;;;;;;;28.60;20.20;;;;;;;20.51;100.00;94499.69;5071658;28;20194;-80
2022/08/24 01:54:18;;;;;;;22.42;17.15;;;;;;;20.42;100.00;94485.28;5072003;28;20265;-79
2022/08/24 01:56:45;;;;;;;24.88;18.58;;;;;;;20.32;100.00;94463.31;5071485;28;20229;-81
2022/08/24 01:59:14;;;;;;;25.67;19.35;;;;;;;20.47;100.00;94492.47;5071307;28;20382;-82
2022/08/24 02:01:44;;;;;;;25.63;18.45;;;;;;;20.47;100.00;94497.66;5071469;28;20518;-80
2022/08/24 02:04:11;;;;;;;24.27;17.27;;;;;;;20.49;100.00;94493.06;5071424;28;20669;-81
2022/08/24 02:06:39;;;;;;;26.27;18.52;;;;;;;20.47;100.00;94506.25;5071615;28;20186;-79
2022/08/24 02:09:06;;;;;;;25.02;16.27;;;;;;;20.51;100.00;94510.06;5071525;28;20182;-80
2022/08/24 02:11:34;;;;;;;25.95;17.55;;;;;;;20.32;100.00;94489.28;5070908;28;20286;-80
2022/08/24 02:14:01;;;;;;;21.38;17.13;;;;;;;20.47;100.00;94505.47;5071428;28;20190;-82
2022/08/24 02:16:29;;;;;;;27.00;17.95;;;;;;;20.31;100.00;94485.91;5070689;28;20226;-79
2022/08/24 02:18:56;;;;;;;21.85;17.15;;;;;;;20.39;100.00;94503.88;5071852;28;20247;-80
2022/08/24 02:21:23;;;;;;;23.58;18.00;;;;;;;20.50;100.00;94523.25;5071638;28;20674;-79
2022/08/24 02:23:51;;;;;;;20.38;17.10;;;;;;;20.50;100.00;94529.22;5071594;28;20190;-78
2022/08/24 02:26:18;;;;;;;25.17;18.17;;;;;;;20.51;100.00;94532.66;5070613;28;20198;-81
2022/08/24 02:28:45;;;;;;;22.48;17.13;;;;;;;20.50;100.00;94533.63;5071344;28;20201;-79
2022/08/24 02:31:14;;;;;;;23.23;18.07;;;;;;;20.47;100.00;94529.63;5071136;28;20187;-78
2022/08/24 02:33:42;;;;;;;22.98;17.92;;;;;;;20.28;100.00;94502.66;5070608;28;20225;-81
2022/08/24 02:36:11;;;;;;;25.45;17.95;;;;;;;20.45;100.00;94536.00;5070397;28;20757;-80
2022/08/24 02:38:39;;;;;;;24.80;17.98;;;;;;;20.43;100.00;94532.84;5070271;28;20685;-78
2022/08/24 02:41:06;;;;;;;26.45;18.80;;;;;;;20.39;100.00;94531.63;5070548;28;20190;-78
2022/08/24 02:43:33;;;;;;;25.00;19.13;;;;;;;20.44;100.00;94539.63;5070323;28;20194;-77
2022/08/24 02:46:00;;;;;;;20.23;18.15;;;;;;;20.37;100.00;94523.22;5070436;28;20195;-78
2022/08/24 02:48:27;;;;;;;22.87;18.07;;;;;;;20.34;100.00;94519.25;5070321;28;20198;-78
2022/08/24 02:50:56;;;;;;;23.80;18.65;;;;;;;20.46;100.00;94537.59;5070266;28;20194;-78
2022/08/24 02:53:23;;;;;;;21.70;17.23;;;;;;;20.42;100.00;94531.22;5069806;28;20194;-78
2022/08/24 02:55:50;;;;;;;26.20;18.20;;;;;;;20.47;100.00;94540.03;5070563;28;20190;-79
2022/08/24 02:58:17;;;;;;;19.55;15.95;;;;;;;20.45;100.00;94531.63;5069655;28;20226;-78
2022/08/24 03:00:46;;;;;;;18.35;15.93;;;;;;;20.49;100.00;94543.22;5070280;28;20179;-78
2022/08/24 03:03:14;;;;;;;21.13;16.60;;;;;;;20.42;100.00;94533.81;5069911;28;20194;-78
2022/08/24 03:05:41;;;;;;;17.55;15.38;;;;;;;20.50;100.00;94546.63;5069849;28;20230;-79
2022/08/24 03:08:09;;;;;;;18.38;16.00;;;;;;;20.48;100.00;94540.84;5069726;28;20232;-78
2022/08/24 03:10:36;;;;;;;19.00;15.82;;;;;;;20.48;100.00;94538.25;5069970;28;20186;-79
2022/08/24 03:13:03;;;;;;;18.55;16.75;;;;;;;20.49;100.00;94542.44;5069733;28;20701;-79
2022/08/24 03:15:30;;;;;;;20.10;16.25;;;;;;;20.42;100.00;94536.41;5070025;28;20218;-79
2022/08/24 03:17:57;;;;;;;20.67;15.20;;;;;;;20.45;100.00;94538.63;5069884;28;20612;-79
2022/08/24 03:20:24;;;;;;;18.10;16.20;;;;;;;20.20;100.00;94500.28;5069504;28;20198;-78
2022/08/24 03:22:51;;;;;;;24.35;17.45;;;;;;;20.50;100.00;94544.03;5069932;28;20190;-81
2022/08/24 03:25:23;;;;;;;18.88;16.60;;;;;;;20.50;100.00;94544.03;5069273;28;20661;-79
2022/08/24 03:27:51;;;;;;;19.02;16.42;;;;;;;20.31;100.00;94522.25;5069933;28;20193;-80
2022/08/24 03:30:19;;;;;;;20.95;15.57;;;;;;;20.42;100.00;94542.44;5069573;28;20186;-81
2022/08/24 03:32:46;;;;;;;18.60;15.85;;;;;;;20.38;100.00;94530.03;5069787;28;20195;-78
2022/08/24 03:35:14;;;;;;;22.13;15.30;;;;;;;20.45;100.00;94552.41;5069356;28;20194;-80
2022/08/24 03:37:41;;;;;;;17.70;15.30;;;;;;;20.42;100.00;94552.81;5071098;28;20226;-81
2022/08/24 03:40:11;;;;;;;23.10;16.53;;;;;;;20.37;100.00;94557.81;5073631;28;20570;-78
2022/08/24 03:42:39;;;;;;;20.93;16.33;;;;;;;20.36;100.00;94552.81;5074227;28;20194;-79
2022/08/24 03:45:08;;;;;;;20.63;16.35;;;;;;;20.34;100.00;94549.63;5070159;28;20201;-78
2022/08/24 03:47:35;;;;;;;17.67;15.83;;;;;;;20.21;100.00;94540.84;5069825;28;20190;-80
2022/08/24 03:50:02;;;;;;;20.40;16.40;;;;;;;20.23;100.00;94556.22;5069625;28;20515;-81
2022/08/24 03:52:29;;;;;;;18.05;16.15;;;;;;;20.22;100.00;94562.41;5069396;28;20194;-80
2022/08/24 03:54:56;;;;;;;18.67;16.30;;;;;;;20.22;100.00;94552.81;5069509;28;20186;-79
2022/08/24 03:57:23;;;;;;;18.10;15.97;;;;;;;20.20;100.00;94560.00;5069444;28;20257;-78
2022/08/24 03:59:51;;;;;;;19.70;16.23;;;;;;;20.16;100.00;94560.59;5069256;28;20190;-81
2022/08/24 04:02:18;;;;;;;22.92;16.65;;;;;;;20.15;100.00;94554.63;5069123;28;20190;-81
2022/08/24 04:04:45;;;;;;;20.67;16.50;;;;;;;20.16;100.00;94553.59;5068843;28;20237;-79
2022/08/24 04:07:12;;;;;;;24.53;16.07;;;;;;;20.17;100.00;94551.84;5068955;28;20186;-78
2022/08/24 04:09:39;;;;;;;21.30;16.20;;;;;;;20.03;100.00;94538.03;5069264;28;20217;-79
2022/08/24 04:12:06;;;;;;;17.73;15.85;;;;;;;20.15;100.00;94553.81;5068910;28;20217;-78
2022/08/24 04:14:34;;;;;;;20.08;15.25;;;;;;;20.17;100.00;94552.63;5069198;28;20190;-78
2022/08/24 04:17:03;;;;;;;19.57;15.73;;;;;;;20.18;100.00;94556.81;5069008;28;20227;-80
2022/08/24 04:19:30;;;;;;;18.98;15.02;;;;;;;20.18;100.00;94556.81;5069448;28;20239;-78
2022/08/24 04:21:57;;;;;;;18.07;15.97;;;;;;;20.18;100.00;94556.81;5068842;28;20201;-78
2022/08/24 04:24:25;;;;;;;16.60;14.40;;;;;;;20.19;100.00;94561.00;5069361;28;20194;-80
2022/08/24 04:26:52;;;;;;;22.90;16.67;;;;;;;20.25;100.00;94564.59;5068842;28;20678;-79
2022/08/24 04:29:20;;;;;;;16.93;15.17;;;;;;;20.27;100.00;94562.59;5068960;28;20220;-80
2022/08/24 04:31:47;;;;;;;16.33;14.07;;;;;;;20.27;100.00;94553.03;5068787;28;20213;-81
2022/08/24 04:34:17;;;;;;;16.40;14.70;;;;;;;20.32;100.00;94562.81;5068972;28;20197;-80
2022/08/24 04:36:45;;;;;;;21.67;14.38;;;;;;;20.34;100.00;94567.81;5068941;28;20271;-80
2022/08/24 04:39:13;;;;;;;20.48;15.50;;;;;;;20.36;100.00;94568.41;5069502;28;20263;-80
2022/08/24 04:41:40;;;;;;;17.83;14.68;;;;;;;20.39;100.00;94573.19;5069516;28;20551;-79
2022/08/24 04:44:07;;;;;;;17.77;15.33;;;;;;;20.45;100.00;94573.19;5068749;28;20315;-79
2022/08/24 04:46:34;;;;;;;15.67;14.17;;;;;;;20.46;100.00;94569.56;5069296;28;20204;-80
2022/08/24 04:49:01;;;;;;;16.27;14.57;;;;;;;20.53;100.00;94572.22;5068873;28;20263;-80
2022/08/24 04:51:29;;;;;;;14.95;13.27;;;;;;;20.59;100.00;94570.59;5069241;28;20195;-81
2022/08/24 04:53:56;;;;;;;17.98;13.18;;;;;;;20.62;100.00;94565.00;5069099;28;20201;-81
2022/08/24 04:56:24;;;;;;;13.45;12.15;;;;;;;20.70;100.00;94557.78;5069044;28;20186;-80
2022/08/24 04:58:52;;;;;;;13.57;12.05;;;;;;;20.78;100.00;94561.97;5068992;28;20232;-80
2022/08/24 05:01:22;;;;;;;13.75;11.85;;;;;;;20.84;100.00;94557.75;5069145;28;20183;-81
2022/08/24 05:03:50;;;;;;;12.10;10.82;;;;;;;20.80;100.00;94537.34;5068818;28;20191;-81
2022/08/24 05:06:20;;;;;;;11.52;8.40;;;;;;;20.94;100.00;94561.53;5068764;28;20230;-82
2022/08/24 05:08:48;;;;;;;9.85;8.95;;;;;;;20.86;100.00;94538.38;5068854;28;20194;-80
2022/08/24 05:11:17;;;;;;;10.95;9.63;;;;;;;20.96;100.00;94537.94;5069049;28;20202;-80
2022/08/24 05:13:44;;;;;;;11.93;9.27;;;;;;;21.05;100.00;94544.50;5068846;28;20186;-80
2022/08/24 05:16:14;;;;;;;10.70;9.60;;;;;;;21.26;100.00;94559.00;5070448;28;20222;-80
2022/08/24 05:18:41;;;;;;;9.07;7.80;;;;;;;21.15;97.76;94557.84;5072871;28;20245;-80
2022/08/24 05:21:10;;;;;;;8.23;7.32;;;;;;;21.33;97.53;94564.19;5073262;28;20286;-82
2022/08/24 05:23:37;;;;;;;10.18;8.40;;;;;;;21.35;97.42;94555.19;5073409;28;20198;-82
2022/08/24 05:26:08;;;;;;;11.02;8.52;;;;;;;21.47;98.74;94561.34;5076259;28;20198;-83
2022/08/24 05:28:35;;;;;;;10.48;7.82;;;;;;;21.54;98.65;94562.13;5072776;28;20183;-82
2022/08/24 05:31:10;;;;;;;10.30;7.85;;;;;;;21.53;98.30;94549.28;5072837;28;20252;-80
2022/08/24 05:33:37;;;;;;;8.82;7.93;;;;;;;21.58;97.92;94544.25;5072604;28;20182;-80
2022/08/24 05:36:05;;;;;;;9.15;8.05;;;;;;;21.76;97.93;94552.19;5073124;28;20195;-80
2022/08/24 05:38:32;;;;;;;9.82;8.05;;;;;;;21.76;98.35;94544.38;5072623;28;20218;-78
2022/08/24 05:41:04;;;;;;;7.85;7.05;;;;;;;21.98;96.34;94550.03;5072368;28;20263;-80
2022/08/24 05:43:33;;;;;;;7.88;5.82;;;;;;;22.19;92.55;94548.91;5072814;28;20190;-78
2022/08/24 05:46:00;;;;;;;8.00;6.05;;;;;;;22.42;90.62;94557.91;5072225;28;20182;-80
2022/08/24 05:48:26;;;;;;;5.32;4.82;;;;;;;22.57;89.54;94555.75;5074005;28;20194;-78
2022/08/24 05:50:55;;;;;;;8.70;5.60;;;;;;;22.70;85.33;94550.41;5074857;28;20247;-79
2022/08/24 05:53:22;;;;;;;6.28;5.28;;;;;;;22.83;82.06;94556.50;5079803;28;20174;-78
2022/08/24 05:55:49;;;;;;;5.60;4.90;;;;;;;22.88;83.83;94554.84;5080471;28;20190;-81
2022/08/24 05:58:16;;;;;;;9.63;5.05;;;;;;;22.97;81.91;94552.78;5084245;28;20300;-78
2022/08/24 06:00:45;;;;;;;5.72;5.22;;;;;;;23.03;83.54;94551.91;5090079;28;20188;-78
2022/08/24 06:03:13;;;;;;;6.10;5.55;;;;;;;23.14;83.45;94556.38;5096762;28;20179;-80
2022/08/24 06:05:41;;;;;;;6.15;5.55;;;;;;;23.04;84.34;94540.47;5096874;28;20221;-82
2022/08/24 06:08:09;;;;;;;6.85;5.38;;;;;;;23.21;83.43;94557.13;5096849;28;20217;-79
2022/08/24 06:10:43;;;;;;;5.95;5.35;;;;;;;23.33;80.04;94556.38;5078943;28;20650;-80
2022/08/24 06:13:11;;;;;;;5.43;4.95;;;;;;;23.40;81.32;94562.31;5073444;28;20189;-81
2022/08/24 06:15:38;;;;;;;6.90;4.95;;;;;;;23.42;81.95;94553.25;5072172;28;20698;-82
2022/08/24 06:18:07;;;;;;;7.78;5.65;;;;;;;23.54;82.50;94554.09;5071747;28;20218;-81
2022/08/24 06:20:39;;;;;;;5.55;4.97;;;;;;;23.63;82.83;94556.41;5071550;28;20595;-82
2022/08/24 06:23:06;;;;;;;6.13;5.50;;;;;;;23.66;82.86;94561.19;5071577;28;20221;-82
2022/08/24 06:28:17;;;;;;;11.75;6.18;;;;;;;23.77;78.13;94555.22;5070925;28;20194;-81
2022/08/24 06:30:44;;;;;;;8.20;7.40;;;;;;;23.52;79.32;94524.00;5071447;28;20186;-80
2022/08/24 06:33:13;;;;;;;8.38;7.55;;;;;;;23.76;79.49;94564.06;5071377;28;20197;-79
2022/08/24 06:35:40;;;;;;;10.10;7.75;;;;;;;23.85;78.96;94554.91;5071077;28;20208;-83
2022/08/24 06:38:07;;;;;;;11.48;7.68;;;;;;;23.96;79.77;94548.09;5070699;28;20303;-82
2022/08/24 06:40:34;;;;;;;8.68;6.88;;;;;;;24.06;78.20;94555.41;5070617;28;20197;-81
2022/08/24 06:43:03;;;;;;;7.15;6.05;;;;;;;24.18;77.33;94557.03;5071199;28;20190;-80
2022/08/24 06:45:29;;;;;;;5.68;5.18;;;;;;;24.28;77.75;94559.88;5070954;28;20190;-81
2022/08/24 06:47:56;;;;;;;6.30;5.70;;;;;;;24.52;75.75;94562.50;5070751;28;20187;-79
2022/08/24 06:50:25;;;;;;;9.95;5.22;;;;;;;24.73;76.04;94559.31;5070934;28;20190;-81
2022/08/24 06:52:52;;;;;;;8.13;5.85;;;;;;;24.93;76.99;94563.41;5071090;28;20209;-82
2022/08/24 06:55:19;;;;;;;5.88;5.22;;;;;;;25.08;76.32;94573.38;5070915;28;20178;-78
2022/08/24 06:57:46;;;;;;;5.78;4.97;;;;;;;25.18;73.31;94565.78;5070656;28;20218;-80
2022/08/24 07:00:14;;;;;;;9.70;4.90;;;;;;;25.32;72.63;94572.34;5071304;28;20273;-80
2022/08/24 07:02:41;;;;;;;9.27;6.18;;;;;;;25.45;74.13;94576.53;5070306;28;20189;-82
2022/08/24 07:05:08;;;;;;;7.43;5.35;;;;;;;25.52;73.26;94570.13;5070229;28;20720;-82
2022/08/24 07:07:37;;;;;;;5.95;4.68;;;;;;;25.58;72.61;94573.63;5070359;28;20187;-81
2022/08/24 07:10:07;;;;;;;6.93;4.35;;;;;;;25.73;72.74;94589.63;5070411;28;20217;-81
2022/08/24 07:12:34;;;;;;;8.88;4.80;;;;;;;25.76;71.26;94578.69;5070147;28;20274;-80
2022/08/24 07:15:01;;;;;;;7.13;4.60;;;;;;;25.91;71.85;94585.25;5070462;28;20734;-80
2022/08/24 07:17:28;;;;;;;5.88;5.32;;;;;;;25.93;68.01;94591.03;5070561;28;20353;-79
2022/08/24 07:19:55;;;;;;;5.07;4.47;;;;;;;25.65;68.34;94589.22;5070217;28;20200;-81
2022/08/24 07:22:22;;;;;;;5.07;4.57;;;;;;;25.71;68.33;94590.88;5070108;28;20547;-81
2022/08/24 07:24:50;;;;;;;6.40;4.70;;;;;;;25.82;69.54;94599.75;5070430;28;20573;-81
2022/08/24 07:27:17;;;;;;;12.13;5.10;;;;;;;25.72;68.10;94595.88;5070372;28;20241;-81
2022/08/24 07:29:44;;;;;;;4.50;4.10;;;;;;;25.87;66.88;94602.47;5070062;28;20187;-81
2022/08/24 07:32:11;;;;;;;6.97;4.57;;;;;;;25.88;66.32;94610.09;5070383;28;20567;-80
2022/08/24 07:34:38;;;;;;;5.25;4.68;;;;;;;25.91;66.56;94601.78;5069953;28;20202;-82
2022/08/24 07:37:06;;;;;;;4.90;3.92;;;;;;;25.93;66.41;94589.22;5069702;28;20197;-82
2022/08/24 07:39:33;;;;;;;5.43;4.30;;;;;;;25.89;66.33;94598.56;5068839;28;20593;-83
2022/08/24 07:42:01;;;;;;;8.05;4.68;;;;;;;25.90;66.08;94591.50;5069710;28;20221;-83
2022/08/24 07:44:29;;;;;;;6.57;4.75;;;;;;;25.88;66.06;94583.09;5069356;28;20191;-84
2022/08/24 07:46:56;;;;;;;7.70;4.70;;;;;;;25.85;67.29;94589.59;5069758;28;20337;-83
2022/08/24 07:49:23;;;;;;;9.60;5.07;;;;;;;25.83;68.85;94594.28;5069444;28;20189;-80
2022/08/24 07:51:52;;;;;;;10.35;5.90;;;;;;;25.82;67.71;94592.72;5069414;28;20194;-80
2022/08/24 07:54:19;;;;;;;8.32;5.47;;;;;;;25.92;67.57;94590.25;5069347;28;20225;-82
2022/08/24 07:56:46;;;;;;;10.40;5.80;;;;;;;26.00;68.08;94592.50;5069722;28;20254;-78
2022/08/24 07:59:15;;;;;;;5.68;4.97;;;;;;;26.08;67.38;94588.69;5069397;28;20332;-79
2022/08/24 08:01:42;;;;;;;5.15;4.53;;;;;;;26.01;65.06;94583.59;5069603;28;20186;-77
2022/08/24 08:04:09;;;;;;;6.90;5.03;;;;;;;26.12;65.38;94586.38;5069420;28;20543;-78
2022/08/24 08:06:36;;;;;;;4.80;4.38;;;;;;;26.20;64.78;94580.75;5069233;28;20186;-79
2022/08/24 08:09:04;;;;;;;5.65;4.10;;;;;;;26.24;65.48;94576.63;5069602;28;20222;-83
2022/08/24 08:11:31;;;;;;;6.63;5.10;;;;;;;26.21;65.18;94582.34;5069858;28;20201;-84
2022/08/24 08:13:58;;;;;;;6.90;5.25;;;;;;;26.09;65.92;94573.75;5069872;28;20199;-80
2022/08/24 08:16:26;;;;;;;5.60;4.88;;;;;;;25.89;65.31;94546.16;5069037;28;20179;-80
2022/08/24 08:18:53;;;;;;;7.88;4.95;;;;;;;26.06;66.67;94580.25;5069059;28;20676;-82
2022/08/24 08:24:18;;;;;;;7.55;4.70;;;;;;;26.14;66.97;94553.66;5069336;28;20185;-84
2022/08/24 08:26:48;;;;;;;5.60;5.10;;;;;;;26.19;66.30;94564.22;5069264;28;20616;-79
2022/08/24 08:29:15;;;;;;;5.82;5.25;;;;;;;26.22;66.07;94566.38;5069259;28;20647;-79
2022/08/24 08:31:43;;;;;;;6.32;4.80;;;;;;;26.29;67.45;94566.22;5068645;28;20186;-82
2022/08/24 08:34:11;;;;;;;5.13;4.65;;;;;;;26.22;64.99;94569.00;5069221;28;20194;-80
2022/08/24 08:36:39;;;;;;;4.65;4.25;;;;;;;26.21;65.74;94575.28;5068963;28;20191;-81
2022/08/24 08:39:07;;;;;;;9.32;4.32;;;;;;;26.24;65.71;94568.75;5069452;28;20214;-80
2022/08/24 08:42:03;;;;;;;6.47;4.65;;;;;;;26.34;65.21;94570.72;5068956;28;20215;-79
2022/08/24 08:44:44;;;;;;;5.65;4.28;;;;;;;26.37;65.23;94562.41;5069023;28;20542;-79
2022/08/24 08:47:22;;;;;;;5.05;4.55;;;;;;;26.43;65.30;94569.31;5069055;28;20187;-81
2022/08/24 08:50:04;;;;;;;5.35;4.45;;;;;;;26.46;65.59;94566.22;5069745;28;20586;-82
2022/08/24 08:53:04;;;;;;;4.60;4.20;;;;;;;26.41;65.80;94568.75;5073451;28;20327;-78
2022/08/24 08:55:36;;;;;;;5.35;4.30;;;;;;;26.42;64.03;94565.09;5072629;28;20622;-79
2022/08/24 08:58:23;;;;;;;4.88;4.40;;;;;;;26.39;65.40;94566.38;5072365;28;20607;-79
2022/08/24 09:01:01;;;;;;;8.90;4.68;;;;;;;26.34;64.31;94550.56;5072544;28;20564;-80
2022/08/24 09:04:00;;;;;;;4.93;4.50;;;;;;;26.56;63.47;94576.09;5072273;28;20248;-79
2022/08/24 09:06:44;;;;;;;5.60;3.60;;;;;;;26.58;63.10;94572.19;5072394;28;20193;-78
2022/08/24 09:09:26;;;;;;;4.03;3.72;;;;;;;26.59;64.22;94579.03;5072749;28;20194;-82
2022/08/24 09:12:04;;;;;;;4.40;3.90;;;;;;;26.69;64.13;94575.78;5072241;28;20275;-81
2022/08/24 09:14:57;;;;;;;4.53;3.17;;;;;;;26.77;62.80;94570.13;5072440;28;20186;-79
2022/08/24 09:17:41;;;;;;;6.70;4.35;;;;;;;26.77;63.14;94573.53;5072735;28;20189;-80
2022/08/24 09:20:19;;;;;;;4.97;3.92;;;;;;;26.87;62.24;94579.94;5072504;28;20226;-81
2022/08/24 09:22:48;;;;;;;5.40;3.65;;;;;;;26.87;60.60;94580.75;5072653;28;20186;-84
2022/08/24 09:25:34;;;;;;;4.50;4.10;;;;;;;26.89;61.55;94575.25;5072529;28;20178;-82
2022/08/24 09:28:14;;;;;;;7.13;4.00;;;;;;;26.96;60.32;94568.00;5072585;28;20210;-81
2022/08/24 09:31:09;;;;;;;5.43;3.80;;;;;;;26.95;60.39;94561.97;5072400;28;20182;-79
2022/08/24 09:33:42;;;;;;;4.20;3.80;;;;;;;27.10;59.17;94573.72;5075101;28;20195;-80
2022/08/24 09:36:18;;;;;;;5.75;3.85;;;;;;;27.10;60.19;94558.75;5077317;28;20194;-80
2022/08/24 09:39:06;;;;;;;8.43;4.50;;;;;;;27.20;60.36;94552.81;5075887;28;20225;-81
2022/08/24 09:41:58;;;;;;;7.28;4.90;;;;;;;27.25;60.37;94548.44;5071999;28;20202;-81
2022/08/24 09:45:00;;;;;;;7.40;4.43;;;;;;;27.36;60.22;94554.59;5072417;28;20224;-82
2022/08/24 09:48:22;;;;;;;4.95;4.07;;;;;;;27.45;59.68;94549.69;5071920;28;20194;-81
2022/08/24 09:51:24;;;;;;;4.80;3.83;;;;;;;27.54;59.34;94550.06;5030142;28;20206;-81
2022/08/24 09:54:29;;;;;;;5.15;4.25;;;;;;;27.56;58.31;94543.53;4977813;28;20196;-82
2022/08/24 09:57:17;;;;;;;4.07;3.67;;;;;;;27.54;56.83;94519.31;4989890;28;20561;-79
2022/08/24 10:00:09;;;;;;;4.65;3.97;;;;;;;27.65;57.21;94528.91;4990036;28;20232;-80
2022/08/24 10:02:53;;;;;;;4.75;3.97;;;;;;;27.61;57.48;94519.13;4989625;28;20498;-80
2022/08/24 10:05:33;;;;;;;6.35;4.03;;;;;;;27.71;57.26;94513.97;4989569;28;20233;-80
2022/08/24 10:08:15;;;;;;;8.18;4.05;;;;;;;27.69;58.00;94514.22;4989879;28;20204;-80
2022/08/24 10:10:53;;;;;;;8.57;4.30;;;;;;;27.71;57.66;94514.75;4989813;28;20196;-79
2022/08/24 10:13:38;;;;;;;5.35;4.05;;;;;;;27.81;55.76;94508.03;4989554;28;20217;-79
2022/08/24 10:16:27;;;;;;;8.00;4.50;;;;;;;27.68;56.85;94489.00;4989920;28;20193;-83
2022/08/24 10:19:07;;;;;;;4.20;3.80;;;;;;;27.80;57.82;94501.19;4989499;28;20236;-80
2022/08/24 10:21:45;;;;;;;4.50;4.10;;;;;;;27.82;57.13;94488.63;5012104;28;20603;-79
2022/08/24 10:24:24;;;;;;;6.88;4.55;;;;;;;27.88;56.79;94492.84;5029008;28;20191;-82
2022/08/24 10:27:20;;;;;;;5.57;4.00;;;;;;;27.87;56.63;94489.44;5028658;28;20294;-80
2022/08/24 10:30:10;;;;;;;6.35;4.30;;;;;;;27.82;55.00;94510.44;5035150;28;20205;-79
2022/08/24 10:32:53;;;;;;;5.35;4.60;;;;;;;27.88;54.19;94506.00;5071267;28;20190;-79
2022/08/24 10:35:25;;;;;;;5.80;3.72;;;;;;;27.87;55.43;94496.53;5071174;28;20216;-80
2022/08/24 10:41:38;;;;;;;5.05;4.38;;;;;;;27.89;55.19;94497.06;5071042;28;20347;-80
2022/08/24 10:44:33;;;;;;;6.88;3.78;;;;;;;27.90;55.63;94502.09;5048528;28;20276;-80
2022/08/24 10:47:04;;;;;;;6.00;4.35;;;;;;;27.95;55.52;94496.88;5048222;28;20195;-82
2022/08/24 10:49:56;;;;;;;4.40;4.00;;;;;;;27.99;55.53;94497.16;5048409;28;20655;-80
2022/08/24 10:52:50;;;;;;;4.18;3.78;;;;;;;28.04;55.56;94499.03;5048991;28;20236;-81
2022/08/24 10:55:22;;;;;;;6.25;4.32;;;;;;;28.04;55.27;94496.41;5048345;28;20191;-81
2022/08/24 10:58:22;;;;;;;5.03;4.18;;;;;;;27.95;55.94;94490.81;5048775;28;20202;-81
2022/08/24 11:00:51;;;;;;;6.93;4.35;;;;;;;28.08;56.13;94498.28;5043433;28;20186;-81
2022/08/24 11:03:22;;;;;;;4.53;3.97;;;;;;;28.01;55.35;94477.44;5047960;28;20197;-82
2022/08/24 11:05:52;;;;;;;4.18;3.88;;;;;;;28.11;55.07;94496.97;5048268;28;20745;-81
2022/08/24 11:08:22;;;;;;;5.30;4.03;;;;;;;28.17;54.61;94491.50;5047910;28;20202;-82
2022/08/24 11:11:06;;;;;;;5.35;4.38;;;;;;;28.22;53.01;94491.53;5048408;28;20217;-83
2022/08/24 11:13:35;;;;;;;7.05;4.53;;;;;;;28.21;53.84;94487.34;5047687;28;20198;-83
2022/08/24 11:16:05;;;;;;;8.43;4.78;;;;;;;28.05;54.50;94472.50;5047954;28;20203;-82
2022/08/24 11:18:48;;;;;;;7.47;4.63;;;;;;;28.06;55.24;94492.47;5047489;28;20191;-81
2022/08/24 11:21:32;;;;;;;6.65;4.47;;;;;;;28.18;54.47;94479.16;5057895;28;20273;-84
2022/08/24 11:24:03;;;;;;;6.53;4.82;;;;;;;28.17;55.25;94478.38;5069614;28;20197;-82
2022/08/24 11:26:30;;;;;;;5.35;4.40;;;;;;;28.23;57.30;94473.94;5069970;28;20240;-84
2022/08/24 11:29:00;;;;;;;5.63;3.80;;;;;;;28.14;58.35;94470.97;5069978;28;20186;-82
2022/08/24 11:31:33;;;;;;;8.13;4.47;;;;;;;28.08;58.02;94477.25;5070367;28;20280;-82
2022/08/24 11:34:06;;;;;;;5.32;4.38;;;;;;;28.06;58.06;94457.50;5069600;28;20178;-82
2022/08/24 11:36:35;;;;;;;11.70;4.80;;;;;;;28.08;58.64;94466.75;5069852;28;20660;-79
2022/08/24 11:39:20;;;;;;;5.95;4.18;;;;;;;27.87;58.90;94468.41;5069582;28;20210;-80
2022/08/24 11:41:58;;;;;;;4.28;3.88;;;;;;;27.94;58.52;94473.47;5069379;28;20201;-82
2022/08/24 11:44:45;;;;;;;8.20;4.32;;;;;;;27.84;59.49;94470.75;5069783;28;20201;-80
2022/08/24 11:47:47;;;;;;;9.48;4.90;;;;;;;28.03;59.37;94466.69;5069309;28;20296;-81
2022/08/24 11:50:35;;;;;;;9.73;4.70;;;;;;;27.90;59.78;94460.03;5069184;28;20194;-81
2022/08/24 11:53:33;;;;;;;7.90;4.32;;;;;;;27.95;58.83;94461.91;5069464;28;20662;-80
2022/08/24 11:56:09;;;;;;;5.13;4.13;;;;;;;27.82;59.69;94462.34;5069819;28;20264;-80